Aérodrome :







RETROUVEZ-NOUS SUR...

 
LOGIN :

S'inscrire | Disclaimer

   EN    FR    IT 

 









Légende :    VFR   VFR Marginal   IFR   IFR Intensif   IFR Très Intensif
Visi : 
Plafond : 
>= 8 km
>= 3000ft
5 à 8 km
1000 à 3000 ft
1500m à 5 km
500 à 1000 ft
800 à 1500m
200 à 500 ft
< 800m
< 200 ft
Symboles :   Orages  Brouillard  Fortes neiges  Fortes précipitations  Vent > 20 kt






- Altitude de l'aérodrome : 241 ft
- Code IATA : CEF


KCEF - Westover ARB/Metropolitan

DERNIER METAR :
  • 261524Z 34004KT 10SM BKN011 OVC022 06/06 A2998 RMK AO2A SLP160

METARs EXPIRÉS :
  • 261456Z 01003KT 10SM BKN006 OVC022 06/06 A2997 RMK AO2A SLP156 60002 T00580057 50005
  • 261452Z 35003KT 7SM BKN006 OVC022 06/06 A2997 RMK AO2A SLP156
  • 261356Z 04003KT 5SM BR BKN004 OVC022 05/05 A2997 RMK AO2A SLP156 T00490048

TAF AMD TAF KCEF
Valide du 26 à 15h jusqu'au 27 à 17h UTC


261525Z 2615/2717 04009KT 9999 BKN011 OVC020 QNH2989INS
BECMG 2620/2621 08009KT 9999 FEW015 OVC020 QNH2976INS
BECMG 2704/2705 07009KT 9000 -RA BR OVC010 WS010/10035KT 510104 QNH2945INS
BECMG 2708/2709 06009KT 2400 RA BR BKN005 OVC010 WS010/09040KT 620809 540106 QNH2929INS
BECMG 2715/2716 27015G25KT 9999 NSW FEW005 BKN018 530059 QNH2929INS TX09/2620Z TN06/2615Z



MET'MAP, la Météo Aéronautique d'un coup d'oeil ! - Copyright ORBIFLY Décembre 2007 - Disclaimer

ORBIFLY MET'MAP TEAM :

Programmation & Développement : Alexandra Zaïnal
Sur une idée originale de : Baudouin d'Aumeries
Assistance à la programmation : Marc-Olivier Méhu
Soutien technique & logistique : Manuel Goepfert

Contact : metmap@orbifly.com




SOURCES & CREDITS :

   NOAA